< Typhoon 199711 1997 Season Typhoon 199713 >
Typhoon 199712 (VICTOR)
General InformationTrack Information on Google MapsDetailed Wind InformationList of All Images || Disaster Info.ResourceGoogle EarthGE AnimationAtom FeedGeoJSON
Detalied Best Track (Time Zone = UTC)
Year Month Day Hour Lat. Long. Pressure (hPa) Wind (kt) Class Image Chart
1997 7 30 06 16.2 116.4 1000 0 2 Image Chart
1997 7 30 12 16.2 115.4 1000 0 2 Image Chart
1997 7 30 18 16.4 115.0 998 0 2 Image Chart
1997 7 31 00 16.5 114.8 996 35 3 Image Chart
1997 7 31 06 16.7 114.5 994 40 3 Image Chart
1997 7 31 12 16.9 114.3 994 40 3 Image Chart
1997 7 31 18 17.2 114.1 992 45 3 Image Chart
1997 8 1 00 17.5 114.0 990 50 4 Image Chart
1997 8 1 06 18.2 114.1 985 55 4 Image Chart
1997 8 1 12 18.7 114.0 980 60 4 Image Chart
1997 8 1 18 19.5 114.0 980 60 4 Image Chart
1997 8 2 00 20.3 114.0 980 60 4 Image Chart
1997 8 2 06 21.4 113.9 980 60 4 Image Chart
1997 8 2 12 22.5 114.0 980 60 4 Image Chart
1997 8 2 18 23.9 113.8 985 55 4 Image Chart
1997 8 3 00 25.3 113.8 992 40 3 Image Chart
1997 8 3 03 26.1 113.8 996 0 2 Image Chart
1997 8 3 06 26.9 113.7 996 0 2 Image Chart
1997 8 3 12 28.2 113.6 998 0 2 Image Chart
1997 8 3 18 29.7 113.9 998 0 2 Image Chart
1997 8 4 00 30.7 115.3 998 0 2 Image Chart
Japan Meteorological Agency Best Track Data | Correction Date : 1998-01-19
< Typhoon 199711 1997 Season Typhoon 199713 >

Help